• Join FlightAware (Why Join?)
  • Login
  • US Flag 
02:52PM EDT


 

Airport Tracker/Info


-or-


 

Live Flight TrackerFlight Track Log ✈ JBU24 ✈ 12-May-2013 ✈ KJFK - KSYR

Flight Track Log - Related Links

Times and Time Zones

All times are in EDT time to prevent confusion due to time zone crossing. See the JBU24 flight status page for this flight to view local times or setup timezone preferences in your user account.

Time Position Orientation Groundspeed Altitude Reporting Facility
EDT Latitude Longitude Course Direction KTS MPH feet Rate Location/Type
05:33PM 40.6333 -73.8333 316° Northwest 164 189 2,700  Level New York TRACON
05:34PM 40.5833 -73.7833 143° Southeast 250 288 5,600 2,820 Climbing New York TRACON
05:35PM 40.8114 -74.0114 323° Northwest  Level FlightAware Approximate
05:35PM 40.6000 -73.7000 75° East 287 330 8,400  Level New York TRACON
05:36PM 40.8695 -74.0958 311° West  Level FlightAware Approximate
05:36PM 40.6667 -73.6000 49° Northeast 313 360 11,600  Level New York TRACON
05:37PM 40.9274 -74.1805 316° Northwest  Level FlightAware Approximate
05:37PM 40.7333 -73.5167 43° Northeast 352 405 14,000  Level New York TRACON
05:38PM 40.9894 -74.2601 316° Northwest  Level FlightAware Approximate
05:38PM 40.8333 -73.5000 North 355 409 16,700  Level New York TRACON
05:39PM 40.9167 -73.5500 336° Northwest 378 435 17,000 120 Climbing New York TRACON
05:40PM 41.0000 -73.6500 318° Northwest 370 426 17,000  Level New York TRACON
05:41PM 41.0500 -73.7500 304° West 352 405 17,000  Level New York TRACON
05:42PM 41.0667 -73.8667 281° West 332 382 17,000  Level New York TRACON
05:43PM 41.1000 -73.9833 291° West 336 387 17,000 600 Level New York TRACON
05:45PM 41.1431 -74.2014 285° West 341 392 18,700 1,440 Climbing New York Center
05:46PM 41.1692 -74.3047 289° West 341 392 21,200 1,620 Climbing New York Center
05:47PM 41.1967 -74.4300 286° West 347 399 22,000 360 Climbing New York Center
05:48PM 41.2258 -74.5614 286° West 358 412 22,000  Level New York Center
05:49PM 41.2886 -74.6781 306° West 364 419 22,000  Level New York Center
05:50PM 41.3556 -74.7925 308° West 378 435 22,000  Level New York Center
05:51PM 41.4267 -74.9047 310° West 392 451 22,000  Level New York Center
05:52PM 41.4936 -75.0167 309° West 392 451 22,000  Level New York Center
05:53PM 41.5603 -75.1264 309° West 392 451 22,000  Level New York Center
05:54PM 41.6269 -75.2361 309° West 386 444 22,000  Level New York Center
05:55PM 41.6936 -75.3489 308° West 386 444 22,000  Level New York Center
05:56PM 41.7619 -75.4647 308° West 386 444 22,000  Level New York Center
05:57PM 41.8361 -75.5897 309° West 386 444 22,000  Level New York Center
05:58PM 41.9022 -75.7033 308° West 386 444 22,000  Level New York Center
05:59PM 41.9683 -75.8142 309° West 386 444 22,000  Level New York Center
06:00PM 42.0361 -75.9283 309° West 386 444 22,000  Level New York Center
06:01PM 42.1000 -76.0394 308° West 386 444 22,000 -840 Level New York Center
06:02PM 42.1964 -76.1172 329° Northwest 391 450 20,400 -2,040 Descending New York Center
06:04PM 42.4558 -76.1044 North 340 391 15,400 -2,520 Descending Boston Center
06:05PM 42.5481 -76.0928 North 331 381 12,100 -2,100 Descending Boston Center
06:06PM 42.6442 -76.0844 North 321 369 11,000 -1,080 Descending Boston Center
06:07PM 42.7278 -76.0781 North 304 350 9,900 -1,620 Descending Boston Center
06:08PM 42.8219 -76.0667 North 287 330 7,600 -2,160 Descending Boston Center
06:09PM 42.8933 -76.0511 North 280 322 5,600 -2,160 Descending Boston Center
06:10PM 42.9669 -76.0269 14° North 272 313 3,500 -1,680 Descending Boston Center
06:11PM 43.0322 -76.0081 12° North 214 246 2,300 -960 Descending Boston Center
06:12PM 43.0625 -76.0411 321° Northwest 124 143 1,600 -660 Descending Boston Center
06:13PM 43.0906 -76.0739 320° Northwest 117 135 1,000 -600 Descending Boston Center